Rios Canyon (246) Station Data

Red Flag Warning: No
Fire Weather Zone: 250
SDGE Region: Eastern
Lat/Lon: 32.843/-116.881

Observations

Time Wind Speed/Gust Temp(F) RH Fuel Moist Fuel Temp(F) Dewpt(F) Tmax(F) Tmin(F) Accum Precip 10-min Precip SL Press(mb)
6/27 5:10pm 253 6 G 11 90° 16% - - 37° 98.3° 60.8° - - 1010.0
6/27 5:00pm 252 6 G 11 90° 17% - - 40° 98.3° 60.8° - - 1010.0
6/27 4:50pm 266 7 G 12 90° 18% - - 42° 98.3° 60.8° - - 1010.0
6/27 4:40pm 241 6 G 12 90° 20% - - 43° 98.3° 60.8° - - 1010.0
6/27 4:30pm 259 6 G 11 91° 19% - - 42° 98.3° 60.8° - - 1011.0
6/27 4:20pm 259 7 G 11 91° 19% - - 43° 98.3° 60.8° - - 1011.0
6/27 4:10pm 252 5 G 11 91° 21% - - 46° 98.3° 60.8° - - 1011.0
6/27 4:00pm 255 7 G 13 91° 22% - - 47° 98.3° 60.8° - - 1011.0
6/27 3:50pm 234 5 G 10 92° 22% - - 47° 98.3° 60.8° - - 1011.0
6/27 3:40pm 196 5 G 10 92° 20% - - 46° 98.3° 60.8° - - 1011.0
6/27 3:30pm 209 5 G 12 92° 19% - - 44° 98.3° 60.8° - - 1011.0
6/27 3:20pm 226 6 G 14 92° 20% - - 45° 98.3° 60.8° - - 1011.0
6/27 3:10pm 224 6 G 11 92° 20% - - 45° 98.3° 60.8° - - 1011.0
6/27 3:00pm 212 6 G 13 93° 17% - - 41° 98.3° 60.8° - - 1011.0
6/27 2:50pm 228 6 G 11 93° 16% - - 40° 98.3° 60.8° - - 1011.0
6/27 2:40pm 224 7 G 15 93° 16% - - 41° 98.3° 60.8° - - 1011.0
6/27 2:30pm 243 6 G 12 93° 16% - - 40° 98.3° 60.8° - - 1011.0
6/27 2:20pm 251 8 G 16 93° 15% - - 39° 98.3° 60.8° - - 1011.0
6/27 2:10pm 226 7 G 13 94° 15% - - 39° 98.3° 60.8° - - 1011.0
6/27 2:00pm 233 7 G 12 94° 16% - - 40° 98.3° 60.8° - - 1011.0
6/27 1:50pm 235 7 G 12 94° 16% - - 41° 98.3° 60.8° - - 1011.0
6/27 1:40pm 230 7 G 15 94° 17% - - 43° 98.3° 60.8° - - 1011.0
6/27 1:30pm 219 6 G 14 94° 19% - - 45° 98.3° 60.8° - - 1011.0
6/27 1:20pm 220 7 G 13 94° 19% - - 46° 98.3° 60.8° - - 1011.0
6/27 1:10pm 221 7 G 14 96° 17% - - 44° 98.3° 60.8° - - 1011.0
6/27 1:00pm 223 7 G 13 97° 14% - - 40° 98.3° 60.8° - - 1011.0
6/27 12:50pm 209 7 G 14 97° 13% - - 37° 98.3° 60.8° - - 1011.0
6/27 12:40pm 231 6 G 11 97° 11% - - 34° 98.3° 60.8° - - 1011.0
6/27 12:30pm 226 5 G 12 98° 10% - - 32° 98.3° 60.8° - - 1011.0
6/27 12:20pm 231 5 G 8 98° 9% - - 30° 98.3° 60.8° - - 1011.0
6/27 12:10pm 241 5 G 12 97° 9% - - 29° 97.5° 60.8° - - 1011.0
6/27 12:00pm 228 4 G 8 97° 10% - - 31° 97.5° 60.8° - - 1011.0
6/27 11:50am 223 3 G 8 97° 10% - - 30° 97.4° 60.8° - - 1011.0
6/27 11:40am 257 5 G 9 95° 10% - - 29° 96.3° 60.8° - - 1011.0
6/27 11:30am 244 4 G 10 95° 9% - - 29° 96.3° 60.8° - - 1011.0
6/27 11:20am 226 4 G 8 95° 10% - - 29° 95.6° 60.8° - - 1012.0
6/27 11:10am 256 4 G 7 93° 11% - - 31° 94.1° 60.8° - - 1012.0
6/27 11:00am 251 5 G 10 93° 13% - - 34° 93.9° 60.8° - - 1012.0
6/27 10:50am 252 4 G 10 93° 13% - - 34° 93.1° 60.8° - - 1012.0
6/27 10:40am 262 6 G 9 91° 12% - - 33° 92.1° 60.8° - - 1012.0
6/27 10:30am 256 5 G 9 91° 12% - - 31° 91.5° 60.8° - - 1012.0
6/27 10:20am 248 5 G 9 90° 13% - - 32° 91.4° 60.8° - - 1012.0
6/27 10:10am 247 5 G 9 90° 12% - - 30° 91.4° 60.8° - - 1012.0
6/27 10:00am 230 5 G 10 91° 11% - - 29° 91.4° 60.8° - - 1012.0
6/27 9:50am 252 5 G 8 90° 12% - - 30° 90.4° 60.8° - - 1012.0
6/27 9:40am 260 4 G 8 89° 12% - - 30° 89.5° 60.8° - - 1012.0
6/27 9:30am 261 3 G 5 88° 12% - - 29° 88.3° 60.8° - - 1012.0
6/27 9:20am 256 3 G 6 87° 13% - - 30° 87.2° 60.8° - - 1012.0
6/27 9:10am 247 2 G 4 86° 14% - - 31° 86.5° 60.8° - - 1012.0
6/27 8:50am 247 2 G 4 84° 16% - - 33° 84.5° 60.8° - - 1012.0
6/27 8:40am 240 2 G 3 83° 16% - - 32° 83.4° 60.8° - - 1012.0
6/27 8:30am 239 2 G 4 82° 16% - - 31° 82.3° 60.8° - - 1012.0
6/27 8:20am 231 2 G 3 80° 17% - - 32° 81.2° 60.8° - - 1012.0
6/27 8:10am 247 1 G 3 79° 18% - - 32° 79.7° 60.8° - - 1012.0
6/27 8:00am 250 1 G 2 77° 19% - - 32° 78.4° 60.8° - - 1012.0
6/27 7:50am 251 2 G 3 76° 21% - - 33° 76.4° 60.8° - - 1012.0
6/27 7:40am 245 1 G 3 75° 21% - - 32° 75.5° 60.8° - - 1012.0
6/27 7:30am 179 1 G 1 73° 25% - - 35° 73.9° 60.8° - - 1012.0
6/27 7:20am 304 0 G 1 71° 24% - - 32° 72.8° 60.8° - - 1012.0
6/27 7:10am 99 0 G 2 69° 28% - - 34° 72.4° 60.8° - - 1013.0
6/27 7:00am 123 0 G 1 67° 29% - - 34° 72.4° 60.8° - - 1013.0
6/27 6:50am 101 0 G 1 65° 30% - - 33° 72.4° 60.8° - - 1013.0
6/27 6:40am 126 1 G 2 64° 32% - - 33° 72.4° 60.8° - - 1013.0
6/27 6:30am 115 1 G 2 63° 32% - - 33° 72.4° 60.8° - - 1013.0
6/27 6:20am 105 1 G 3 63° 32% - - 32° 72.4° 60.8° - - 1013.0
6/27 6:10am 83 1 G 3 62° 32% - - 32° 72.4° 60.8° - - 1013.0
6/27 6:00am 158 1 G 3 61° 33% - - 32° 72.4° 60.8° - - 1013.0
6/27 5:50am 149 0 G 2 62° 33% - - 32° 72.4° 61.1° - - 1013.0
6/27 5:40am 96 2 G 4 64° 29% - - 31° 72.4° 61.3° - - 1012.0
6/27 5:30am 78 1 G 2 63° 29% - - 31° 72.4° 61.3° - - 1013.0
6/27 5:20am 71 1 G 2 63° 31% - - 31° 72.4° 61.3° - - 1012.0
6/27 5:10am 100 2 G 4 63° 31% - - 32° 72.4° 61.3° - - 1012.0
6/27 5:00am 131 1 G 3 62° 33% - - 33° 72.4° 61.3° - - 1013.0
6/27 4:50am 108 2 G 3 63° 31% - - 32° 72.4° 62.4° - - 1012.0
6/27 4:40am 62 1 G 3 63° 32% - - 33° 72.4° 62.4° - - 1012.0
6/27 4:30am 117 2 G 2 63° 33% - - 34° 72.4° 62.7° - - 1012.0
6/27 4:20am 107 1 G 1 64° 33% - - 34° 72.4° 62.8° - - 1012.0
6/27 4:10am 70 0 G 1 64° 33% - - 34° 72.4° 63.1° - - 1012.0
6/27 4:00am 119 2 G 2 64° 34% - - 35° 72.4° 63.1° - - 1012.0
6/27 3:50am 101 1 G 4 65° 32% - - 34° 72.4° 63.5° - - 1012.0
6/27 3:40am 102 2 G 4 64° 33% - - 35° 72.4° 63.5° - - 1012.0
6/27 3:30am 196 1 G 2 64° 35% - - 36° 72.4° 63.5° - - 1012.0
6/27 3:20am 93 2 G 4 66° 29% - - 33° 72.4° 64.7° - - 1012.0
6/27 3:10am 79 2 G 3 66° 31% - - 34° 72.4° 64.7° - - 1012.0
6/27 3:00am 127 2 G 3 65° 35% - - 37° 72.4° 64.7° - - 1012.0
6/27 2:50am 102 1 G 2 67° 31% - - 35° 72.4° 66.2° - - 1012.0
6/27 2:40am 93 1 G 3 67° 33% - - 37° 72.4° 66.4° - - 1012.0
6/27 2:30am 111 1 G 2 67° 32% - - 37° 72.4° 66.6° - - 1012.0
6/27 2:20am 94 1 G 3 68° 31% - - 36° 72.4° 67.1° - - 1012.0
6/27 2:10am 113 3 G 5 69° 29% - - 36° 72.4° 67.1° - - 1012.0
6/27 2:00am 110 2 G 4 69° 30% - - 36° 72.4° 67.1° - - 1012.0
6/27 1:50am 116 2 G 4 69° 30% - - 36° 72.4° 67.1° - - 1012.0
6/27 1:40am 96 2 G 4 69° 30% - - 37° 72.4° 67.1° - - 1012.0
6/27 1:30am 100 2 G 4 68° 34% - - 39° 72.4° 67.1° - - 1013.0
6/27 1:20am 114 1 G 3 68° 36% - - 40° 72.4° 67.2° - - 1013.0
6/27 1:10am 100 1 G 2 69° 34% - - 40° 72.4° 68.4° - - 1013.0
6/27 1:00am 109 2 G 3 70° 33% - - 39° 72.4° 68.9° - - 1013.0
6/27 12:50am 84 0 G 1 71° 32% - - 40° 72.4° 69.8° - - 1013.0
6/27 12:40am 112 1 G 3 70° 34% - - 41° 72.4° 69.8° - - 1013.0
6/27 12:30am 108 2 G 4 71° 35% - - 42° 72.4° 70.2° - - 1013.0
6/27 12:20am 102 3 G 4 71° 38% - - 44° 72.4° 70.2° - - 1013.0
6/27 12:10am 109 3 G 3 72° 34% - - 42° 72.4° 70.6° - - 1013.0
6/27 12:00am 128 3 G 4 72° 33% - - 41° 102.2° 64.6° - - 1013.0
6/26 11:50pm 126 3 G 4 73° 31% - - 41° 102.2° 64.6° - - 1013.0
6/26 11:40pm 121 3 G 6 74° 30% - - 40° 102.2° 64.6° - - 1013.0
6/26 11:30pm 120 4 G 6 74° 30% - - 40° 102.2° 64.6° - - 1013.0
6/26 11:20pm 123 5 G 7 74° 29% - - 40° 102.2° 64.6° - - 1013.0
6/26 11:10pm 115 6 G 8 73° 29% - - 39° 102.2° 64.6° - - 1013.0
6/26 11:00pm 104 4 G 6 73° 29% - - 39° 102.2° 64.6° - - 1013.0
6/26 10:50pm 98 3 G 5 74° 28% - - 38° 102.2° 64.6° - - 1013.0
6/26 10:40pm 91 3 G 4 75° 27% - - 38° 102.2° 64.6° - - 1013.0
6/26 10:30pm 97 3 G 4 75° 26% - - 38° 102.2° 64.6° - - 1013.0
6/26 10:20pm 83 2 G 3 74° 28% - - 39° 102.2° 64.6° - - 1013.0
6/26 10:10pm 95 2 G 3 75° 28% - - 40° 102.2° 64.6° - - 1013.0
6/26 10:00pm 117 1 G 3 76° 25% - - 38° 102.2° 64.6° - - 1013.0
6/26 9:50pm 140 0 G 1 76° 25% - - 38° 102.2° 64.6° - - 1013.0
6/26 9:40pm 112 2 G 3 77° 25% - - 38° 102.2° 64.6° - - 1013.0
6/26 9:30pm 109 3 G 5 78° 23% - - 38° 102.2° 64.6° - - 1013.0
6/26 9:20pm 97 3 G 5 78° 23% - - 38° 102.2° 64.6° - - 1013.0
6/26 9:10pm 91 3 G 5 79° 22% - - 37° 102.2° 64.6° - - 1013.0
6/26 9:00pm 74 2 G 4 80° 21% - - 37° 102.2° 64.6° - - 1013.0
6/26 8:50pm 96 2 G 4 81° 21% - - 37° 102.2° 64.6° - - 1013.0
6/26 8:40pm 92 1 G 3 81° 21% - - 37° 102.2° 64.6° - - 1013.0
6/26 8:30pm 113 2 G 4 82° 20% - - 37° 102.2° 64.6° - - 1012.0
6/26 8:20pm 154 2 G 3 85° 17% - - 35° 102.2° 64.6° - - 1012.0
6/26 8:10pm 287 2 G 4 88° 15% - - 35° 102.2° 64.6° - - 1012.0
6/26 8:00pm 304 1 G 4 89° 14% - - 34° 102.2° 64.6° - - 1012.0
6/26 7:50pm 255 3 G 5 89° 14% - - 34° 102.2° 64.6° - - 1012.0
6/26 7:40pm 243 3 G 6 91° 14% - - 34° 102.2° 64.6° - - 1012.0
6/26 7:30pm 241 3 G 6 92° 13% - - 34° 102.2° 64.6° - - 1012.0
6/26 7:20pm 218 4 G 8 92° 13% - - 34° 102.2° 64.6° - - 1012.0
6/26 7:10pm 224 4 G 8 93° 13% - - 35° 102.2° 64.6° - - 1012.0
6/26 7:00pm 221 5 G 9 93° 14% - - 36° 102.2° 64.6° - - 1012.0
6/26 6:50pm 238 5 G 9 94° 13% - - 35° 102.2° 64.6° - - 1011.0
6/26 6:40pm 245 5 G 9 95° 12% - - 34° 102.2° 64.6° - - 1011.0
6/26 6:30pm 254 6 G 10 95° 11% - - 33° 102.2° 64.6° - - 1011.0
6/26 6:20pm 253 6 G 10 96° 11% - - 33° 102.2° 64.6° - - 1011.0
6/26 6:10pm 242 5 G 10 96° 11% - - 34° 102.2° 64.6° - - 1011.0
6/26 6:00pm 254 7 G 12 96° 11% - - 33° 102.2° 64.6° - - 1011.0
6/26 5:50pm 248 6 G 11 97° 11% - - 34° 102.2° 64.6° - - 1011.0
6/26 5:40pm 237 6 G 10 97° 11% - - 35° 102.2° 64.6° - - 1011.0
6/26 5:30pm 243 6 G 11 98° 11% - - 34° 102.2° 64.6° - - 1011.0
6/26 5:20pm 262 7 G 12 99° 10% - - 33° 102.2° 64.6° - - 1011.0
6/26 5:10pm 247 6 G 12 100° 9% - - 32° 102.2° 64.6° - - 1011.0
6/26 5:00pm 252 7 G 11 100° 10% - - 34° 102.2° 64.6° - - 1011.0
6/26 4:50pm 241 5 G 11 100° 12% - - 37° 102.2° 64.6° - - 1011.0
6/26 4:40pm 258 7 G 12 100° 12% - - 38° 102.2° 64.6° - - 1012.0
6/26 4:30pm 260 6 G 13 101° 11% - - 37° 102.2° 64.6° - - 1012.0
6/26 4:20pm 254 7 G 13 101° 11% - - 37° 102.2° 64.6° - - 1012.0
6/26 4:10pm 253 7 G 11 101° 11% - - 37° 102.2° 64.6° - - 1012.0
6/26 4:00pm 247 6 G 12 101° 11% - - 38° 102.2° 64.6° - - 1012.0
6/26 3:50pm 254 7 G 14 101° 12% - - 39° 102.2° 64.6° - - 1012.0
6/26 3:40pm 241 6 G 13 101° 12% - - 39° 102.2° 64.6° - - 1012.0
6/26 3:30pm 242 6 G 13 102° 13% - - 41° 102.2° 64.6° - - 1012.0
6/26 3:20pm 257 7 G 13 101° 13% - - 41° 102.2° 64.6° - - 1012.0
6/26 3:10pm 249 7 G 15 101° 14% - - 42° 102.2° 64.6° - - 1012.0
6/26 3:00pm 257 7 G 13 101° 13% - - 42° 102.2° 64.6° - - 1012.0
6/26 2:50pm 252 6 G 13 101° 13% - - 42° 102.2° 64.6° - - 1012.0
6/26 2:40pm 248 6 G 12 101° 13% - - 42° 101.6° 64.6° - - 1012.0
6/26 2:30pm 252 7 G 11 100° 13% - - 40° 101.6° 64.6° - - 1012.0
6/26 2:20pm 255 5 G 10 100° 13% - - 41° 101.6° 64.6° - - 1012.0
6/26 2:10pm 208 4 G 9 101° 15% - - 44° 101.6° 64.6° - - 1012.0
6/26 2:00pm 231 4 G 8 99° 15% - - 44° 99.9° 64.6° - - 1012.0
6/26 1:50pm 263 6 G 11 98° 16% - - 45° 99.3° 64.6° - - 1012.0
6/26 1:40pm 232 5 G 11 98° 17% - - 46° 98° 64.6° - - 1012.0
6/26 1:30pm 234 4 G 11 97° 18% - - 46° 98° 64.6° - - 1013.0
6/26 1:20pm 234 5 G 10 97° 17% - - 46° 97.6° 64.6° - - 1013.0
6/26 1:10pm 212 5 G 10 97° 18% - - 46° 97.6° 64.6° - - 1013.0
6/26 1:00pm 241 6 G 11 96° 18% - - 47° 97.3° 64.6° - - 1013.0
6/26 12:50pm 232 4 G 10 97° 19% - - 48° 97.3° 64.6° - - 1013.0
6/26 12:40pm 227 5 G 10 96° 20% - - 48° 96.2° 64.6° - - 1013.0
6/26 12:30pm 244 5 G 10 95° 21% - - 49° 95.7° 64.6° - - 1013.0
6/26 12:20pm 246 5 G 9 95° 21% - - 49° 95.7° 64.6° - - 1013.0
6/26 12:10pm 231 4 G 8 94° 22% - - 50° 95.3° 64.6° - - 1013.0
6/26 12:00pm 240 5 G 9 94° 23% - - 50° 95.3° 64.6° - - 1013.0
6/26 11:50am 230 5 G 10 94° 23% - - 51° 95.3° 64.6° - - 1013.0
6/26 11:40am 250 6 G 10 93° 24% - - 51° 94.7° 64.6° - - 1013.0
6/26 11:30am 228 6 G 11 94° 25% - - 52° 94.7° 64.6° - - 1013.0
6/26 11:20am 241 6 G 11 94° 24% - - 52° 94.7° 64.6° - - 1013.0
6/26 11:10am 252 6 G 11 93° 26% - - 53° 93.9° 64.6° - - 1013.0
6/26 11:00am 243 5 G 10 93° 24% - - 51° 93.9° 64.6° - - 1013.0
6/26 10:50am 246 5 G 11 93° 22% - - 49° 93.7° 64.6° - - 1013.0
6/26 10:40am 257 4 G 8 93° 22% - - 48° 93° 64.6° - - 1013.0
6/26 10:30am 243 4 G 10 92° 21% - - 46° 92.5° 64.6° - - 1013.0
6/26 10:20am 264 5 G 9 91° 21% - - 46° 91.7° 64.6° - - 1013.0
6/26 10:10am 264 6 G 10 90° 23% - - 47° 91.7° 64.6° - - 1013.0
6/26 10:00am 259 6 G 10 90° 23% - - 47° 91.7° 64.6° - - 1013.0
6/26 9:50am 253 5 G 9 91° 20% - - 44° 91.7° 64.6° - - 1013.0
6/26 9:40am 257 4 G 7 90° 20% - - 44° 91.3° 64.6° - - 1013.0
6/26 9:30am 259 3 G 8 89° 21% - - 44° 89.9° 64.6° - - 1013.0
6/26 9:20am 252 3 G 7 88° 22% - - 44° 88.3° 64.6° - - 1013.0
6/26 9:10am 250 3 G 5 87° 23% - - 44° 87.8° 64.6° - - 1013.0
6/26 9:00am 255 3 G 5 86° 22% - - 43° 86.2° 64.6° - - 1013.0
6/26 8:50am 249 3 G 4 85° 21% - - 41° 86.1° 64.6° - - 1013.0
6/26 8:40am 262 3 G 5 84° 21% - - 40° 84.5° 64.6° - - 1013.0
6/26 8:30am 255 2 G 4 83° 22% - - 40° 83.8° 64.6° - - 1013.0
6/26 8:20am 259 2 G 4 81° 24% - - 42° 81.8° 64.6° - - 1013.0
6/26 8:10am 248 2 G 3 80° 29% - - 45° 80.6° 64.6° - - 1013.0
6/26 8:00am 253 2 G 3 79° 31% - - 46° 79.9° 64.6° - - 1013.0
6/26 7:50am 266 2 G 4 77° 32% - - 45° 78.3° 64.6° - - 1013.0
6/26 7:40am 249 2 G 4 76° 34% - - 45° 76.4° 64.6° - - 1013.0
6/26 7:30am 242 1 G 4 75° 34% - - 45° 75.9° 64.6° - - 1013.0
6/26 7:20am 238 0 G 2 74° 37% - - 46° 74.5° 64.6° - - 1013.0
6/26 7:10am 206 0 G 2 72° 38% - - 45° 73.4° 64.6° - - 1013.0
6/26 7:00am 99 2 G 3 71° 38% - - 44° 73.4° 64.6° - - 1013.0
6/26 6:50am 82 1 G 3 70° 40% - - 44° 73.4° 64.6° - - 1013.0
6/26 6:40am 88 0 G 2 69° 41% - - 44° 73.4° 64.6° - - 1013.0
6/26 6:30am 108 2 G 4 68° 40% - - 43° 73.4° 64.6° - - 1013.0
6/26 6:20am 98 2 G 4 66° 45% - - 44° 73.4° 64.6° - - 1013.0
6/26 6:10am 116 1 G 2 65° 48% - - 45° 73.4° 64.6° - - 1013.0
6/26 6:00am 121 1 G 2 65° 49% - - 46° 73.4° 64.6° - - 1013.0